Observation data for White River Lake on 02/14/2018      Previous  Date  Next       Current Mesonet Observations  Soil Data  Daily Summary Page  Observations in Plain Language
KWVS 140600Z 21002KT 08/03 A3023 RMK A01 T00790030  RH  072%=      5-min Rain = 0
KWVS 140605Z 20003KT 09/04 A3023 RMK A01 T00850035  RH  072%=      5-min Rain = 0
KWVS 140610Z 21004KT 09/03 A3023 RMK A01 T00880034  RH  070%=      5-min Rain = 0
KWVS 140615Z 22004KT 08/03 A3023 RMK A01 T00830030  RH  070%=      5-min Rain = 0
KWVS 140620Z 22004KT 08/03 A3023 RMK A01 T00790028  RH  072%=      5-min Rain = 0
KWVS 140625Z 20004KT 08/03 A3023 RMK A01 T00810031  RH  072%=      5-min Rain = 0
KWVS 140630Z 19006KT 08/03 A3022 RMK A01 T00830033  RH  072%=      5-min Rain = 0
KWVS 140635Z 19006KT 08/03 A3023 RMK A01 T00800032  RH  073%=      5-min Rain = 0
KWVS 140640Z 19006KT 08/03 A3023 RMK A01 T00770030  RH  074%=      5-min Rain = 0
KWVS 140645Z 19006KT 08/03 A3023 RMK A01 T00760032  RH  075%=      5-min Rain = 0
KWVS 140650Z 19006KT 08/04 A3022 RMK A01 T00780035  RH  076%=      5-min Rain = 0
KWVS 140655Z 19006KT 08/04 A3022 RMK A01 T00810040  RH  077%=      5-min Rain = 0
KWVS 140700Z 20006KT 08/04 A3022 RMK A01 T00820044  RH  079%=      5-min Rain = 0
KWVS 140705Z 20006KT 08/04 A3022 RMK A01 T00790044  RH  081%=      5-min Rain = 0
KWVS 140710Z 20005KT 08/05 A3021 RMK A01 T00790047  RH  081%=      5-min Rain = 0
KWVS 140715Z 19005KT 08/05 A3022 RMK A01 T00800046  RH  081%=      5-min Rain = 0
KWVS 140720Z 19004KT 08/05 A3022 RMK A01 T00800046  RH  081%=      5-min Rain = 0
KWVS 140725Z 17005KT 08/05 A3021 RMK A01 T00780045  RH  082%=      5-min Rain = 0
KWVS 140730Z 17005KT 08/05 A3021 RMK A01 T00780047  RH  083%=      5-min Rain = 0
KWVS 140735Z 18005KT 08/05 A3021 RMK A01 T00780047  RH  082%=      5-min Rain = 0
KWVS 140740Z 19006KT 08/05 A3022 RMK A01 T00770047  RH  083%=      5-min Rain = 0
KWVS 140745Z 19006KT 08/05 A3022 RMK A01 T00750045  RH  083%=      5-min Rain = 0
KWVS 140750Z 18006KT 07/04 A3022 RMK A01 T00720044  RH  084%=      5-min Rain = 0
KWVS 140755Z 18006KT 07/04 A3022 RMK A01 T00710044  RH  084%=      5-min Rain = 0
KWVS 140800Z 18006KT 07/04 A3022 RMK A01 T00710044  RH  084%=      5-min Rain = 0
KWVS 140805Z 19007KT 08/05 A3022 RMK A01 T00750046  RH  084%=      5-min Rain = 0
KWVS 140810Z 20006KT 08/05 A3022 RMK A01 T00760046  RH  083%=      5-min Rain = 0
KWVS 140815Z 20005KT 08/05 A3022 RMK A01 T00770045  RH  082%=      5-min Rain = 0
KWVS 140820Z 21005KT 08/04 A3022 RMK A01 T00770044  RH  082%=      5-min Rain = 0
KWVS 140825Z 20004KT 08/04 A3022 RMK A01 T00770043  RH  081%=      5-min Rain = 0
KWVS 140830Z 20004KT 08/04 A3021 RMK A01 T00770043  RH  081%=      5-min Rain = 0
KWVS 140835Z 21004KT 08/04 A3021 RMK A01 T00770043  RH  081%=      5-min Rain = 0
KWVS 140840Z 20004KT 08/04 A3021 RMK A01 T00790043  RH  080%=      5-min Rain = 0
KWVS 140845Z 21004KT 08/04 A3021 RMK A01 T00780043  RH  080%=      5-min Rain = 0
KWVS 140850Z 19004KT 08/04 A302 RMK A01 T00770041  RH  080%=      5-min Rain = 0
KWVS 140855Z 19007KT 07/04 A302 RMK A01 T00740041  RH  081%=      5-min Rain = 0
KWVS 140900Z 19008KT 08/04 A302 RMK A01 T00750042  RH  081%=      5-min Rain = 0
KWVS 140905Z 19009KT 08/04 A302 RMK A01 T00780043  RH  080%=      5-min Rain = 0
KWVS 140910Z 20009KT 08/04 A302 RMK A01 T00810042  RH  078%=      5-min Rain = 0
KWVS 140915Z 20009KT 09/04 A3019 RMK A01 T00850042  RH  076%=      5-min Rain = 0
KWVS 140920Z 20010KT 09/04 A3019 RMK A01 T00850040  RH  075%=      5-min Rain = 0
KWVS 140925Z 21009KT 08/04 A3019 RMK A01 T00840039  RH  075%=      5-min Rain = 0
KWVS 140930Z 21008KT 08/04 A3019 RMK A01 T00830039  RH  075%=      5-min Rain = 0
KWVS 140935Z 21007KT 08/04 A3019 RMK A01 T00820038  RH  075%=      5-min Rain = 0
KWVS 140940Z 21006KT 08/04 A3019 RMK A01 T00810038  RH  076%=      5-min Rain = 0
KWVS 140945Z 20005KT 08/04 A3019 RMK A01 T00800037  RH  076%=      5-min Rain = 0
KWVS 140950Z 20007KT 08/04 A3019 RMK A01 T00800037  RH  076%=      5-min Rain = 0
KWVS 140955Z 20007KT 08/04 A3019 RMK A01 T00810037  RH  075%=      5-min Rain = 0
KWVS 141000Z 20006KT 08/04 A3019 RMK A01 T00810036  RH  075%=      5-min Rain = 0
KWVS 141005Z 21008KT 08/04 A3019 RMK A01 T00830036  RH  074%=      5-min Rain = 0
KWVS 141010Z 20008KT 09/04 A3019 RMK A01 T00850037  RH  073%=      5-min Rain = 0
KWVS 141015Z 20008KT 09/04 A3019 RMK A01 T00860037  RH  073%=      5-min Rain = 0
KWVS 141020Z 19010KT 08/04 A3019 RMK A01 T00840037  RH  073%=      5-min Rain = 0
KWVS 141025Z 20009KT 08/04 A3019 RMK A01 T00840037  RH  074%=      5-min Rain = 0
KWVS 141030Z 20009KT 08/04 A3019 RMK A01 T00830036  RH  074%=      5-min Rain = 0
KWVS 141035Z 20008KT 08/04 A3019 RMK A01 T00810035  RH  074%=      5-min Rain = 0
KWVS 141040Z 20007KT 08/03 A302 RMK A01 T00800034  RH  074%=      5-min Rain = 0
KWVS 141045Z 21007KT 08/03 A3019 RMK A01 T00800034  RH  074%=      5-min Rain = 0
KWVS 141050Z 21007KT 08/03 A3019 RMK A01 T00820034  RH  073%=      5-min Rain = 0
KWVS 141055Z 19005KT 08/03 A3018 RMK A01 T00830034  RH  073%=      5-min Rain = 0
KWVS 141100Z 18006KT 08/03 A3018 RMK A01 T00830034  RH  073%=      5-min Rain = 0
KWVS 141105Z 18006KT 08/03 A3018 RMK A01 T00810033  RH  073%=      5-min Rain = 0
KWVS 141110Z 19007KT 08/03 A3019 RMK A01 T00800032  RH  073%=      5-min Rain = 0
KWVS 141115Z 19008KT 08/03 A3018 RMK A01 T00820032  RH  072%=      5-min Rain = 0
KWVS 141120Z 20008KT 08/03 A3018 RMK A01 T00840032  RH  071%=      5-min Rain = 0
KWVS 141125Z 19008KT 08/03 A3019 RMK A01 T00840032  RH  071%=      5-min Rain = 0
KWVS 141130Z 19008KT 08/03 A3019 RMK A01 T00820031  RH  071%=      5-min Rain = 0
KWVS 141135Z 20008KT 08/03 A302 RMK A01 T00830030  RH  071%=      5-min Rain = 0
KWVS 141140Z 20008KT 08/03 A3019 RMK A01 T00830030  RH  070%=      5-min Rain = 0
KWVS 141145Z 20007KT 08/03 A3019 RMK A01 T00810029  RH  071%=      5-min Rain = 0
KWVS 141150Z 20008KT 08/03 A302 RMK A01 T00820029  RH  071%=      5-min Rain = 0
KWVS 141155Z 21007KT 08/03 A3019 RMK A01 T00820029  RH  070%=      5-min Rain = 0
KWVS 141200Z 23009KT 09/03 A3019 RMK A01 T00860029  RH  069%=      5-min Rain = 0
KWVS 141205Z 23010KT 09/03 A3019 RMK A01 T00890029  RH  067%=      5-min Rain = 0
KWVS 141210Z 22011KT 09/03 A3019 RMK A01 T00930029  RH  066%=      5-min Rain = 0
KWVS 141215Z 23010KT 09/03 A3019 RMK A01 T00940029  RH  065%=      5-min Rain = 0
KWVS 141220Z 23011KT 10/03 A3019 RMK A01 T00950029  RH  065%=      5-min Rain = 0
KWVS 141225Z 23010KT 10/03 A3018 RMK A01 T00950029  RH  064%=      5-min Rain = 0
KWVS 141230Z 23008KT 09/03 A3018 RMK A01 T00940028  RH  064%=      5-min Rain = 0
KWVS 141235Z 24007KT 09/03 A3018 RMK A01 T00920027  RH  065%=      5-min Rain = 0
KWVS 141240Z 25008KT 09/03 A3018 RMK A01 T00930026  RH  064%=      5-min Rain = 0
KWVS 141245Z 24010KT 10/02 A3018 RMK A01 T00980024  RH  061%=      5-min Rain = 0
KWVS 141250Z 24010KT 10/02 A3018 RMK A01 T00990023  RH  060%=      5-min Rain = 0
KWVS 141255Z 24009KT 10/02 A3018 RMK A01 T01010022  RH  059%=      5-min Rain = 0
KWVS 141300Z 23006KT 10/02 A3018 RMK A01 T01010020  RH  058%=      5-min Rain = 0
KWVS 141305Z 23006KT 10/02 A3018 RMK A01 T00990020  RH  058%=      5-min Rain = 0
KWVS 141310Z 23007KT 10/02 A3018 RMK A01 T00990020  RH  059%=      5-min Rain = 0
KWVS 141315Z 24006KT 10/02 A3018 RMK A01 T00990019  RH  059%=      5-min Rain = 0
KWVS 141320Z 22004KT 10/02 A3018 RMK A01 T00990019  RH  058%=      5-min Rain = 0
KWVS 141325Z 19003KT 10/02 A3018 RMK A01 T00960018  RH  059%=      5-min Rain = 0
KWVS 141330Z 21004KT 09/02 A3017 RMK A01 T00930017  RH  060%=      5-min Rain = 0
KWVS 141335Z 22005KT 09/02 A3017 RMK A01 T00930017  RH  060%=      5-min Rain = 0
KWVS 141340Z 21005KT 09/02 A3018 RMK A01 T00920016  RH  060%=      5-min Rain = 0
KWVS 141345Z 20004KT 09/02 A3018 RMK A01 T00890016  RH  061%=      5-min Rain = 0
KWVS 141350Z 21004KT 09/02 A3018 RMK A01 T00870016  RH  062%=      5-min Rain = 0
KWVS 141355Z 19004KT 09/02 A3017 RMK A01 T00860015  RH  062%=      5-min Rain = 0
KWVS 141400Z 22003KT 09/02 A3017 RMK A01 T00920016  RH  060%=      5-min Rain = 0
KWVS 141405Z 22004KT 10/02 A3017 RMK A01 T00960015  RH  058%=      5-min Rain = 0
KWVS 141410Z 25004KT 10/02 A3018 RMK A01 T00990016  RH  057%=      5-min Rain = 0
KWVS 141415Z 25004KT 10/02 A3018 RMK A01 T00990016  RH  057%=      5-min Rain = 0
KWVS 141420Z 25004KT 10/02 A3018 RMK A01 T01020015  RH  055%=      5-min Rain = 0
KWVS 141425Z 20004KT 11/02 A3018 RMK A01 T01070016  RH  054%=      5-min Rain = 0
KWVS 141430Z 16005KT 11/02 A3018 RMK A01 T01060018  RH  056%=      5-min Rain = 0
KWVS 141435Z 15006KT 10/02 A3018 RMK A01 T01000020  RH  058%=      5-min Rain = 0
KWVS 141440Z 17005KT 10/02 A3018 RMK A01 T00970020  RH  060%=      5-min Rain = 0
KWVS 141445Z 16003KT 10/02 A3018 RMK A01 T00960020  RH  060%=      5-min Rain = 0
KWVS 141450Z 15002KT 10/02 A3018 RMK A01 T01000021  RH  059%=      5-min Rain = 0
KWVS 141455Z 12000KT 11/02 A3018 RMK A01 T01060021  RH  057%=      5-min Rain = 0
KWVS 141500Z 16001KT 11/02 A3018 RMK A01 T01110020  RH  054%=      5-min Rain = 0
KWVS 141505Z 17002KT 11/02 A3018 RMK A01 T01130021  RH  054%=      5-min Rain = 0
KWVS 141510Z 20002KT 12/02 A3018 RMK A01 T01170022  RH  053%=      5-min Rain = 0
KWVS 141515Z 20004KT 12/02 A3018 RMK A01 T01210022  RH  051%=      5-min Rain = 0
KWVS 141520Z 18006KT 13/02 A3018 RMK A01 T01290022  RH  049%=      5-min Rain = 0
KWVS 141525Z 19006KT 13/02 A3018 RMK A01 T01340022  RH  047%=      5-min Rain = 0
KWVS 141530Z 20006KT 13/02 A3018 RMK A01 T01320021  RH  048%=      5-min Rain = 0
KWVS 141535Z 19005KT 14/02 A3018 RMK A01 T01350021  RH  047%=      5-min Rain = 0
KWVS 141540Z 19005KT 14/02 A3018 RMK A01 T01420022  RH  045%=      5-min Rain = 0
KWVS 141545Z 19004KT 15/02 A3018 RMK A01 T01470021  RH  043%=      5-min Rain = 0
KWVS 141550Z 19004KT 15/02 A3018 RMK A01 T01510021  RH  042%=      5-min Rain = 0
KWVS 141555Z 14003KT 16/02 A3018 RMK A01 T01580022  RH  041%=      5-min Rain = 0
KWVS 141600Z 12004KT 16/02 A3018 RMK A01 T01640021  RH  039%=      5-min Rain = 0
KWVS 141605Z 12004KT 17/02 A3018 RMK A01 T01700020  RH  037%=      5-min Rain = 0
KWVS 141610Z 16003KT 18/02 A3018 RMK A01 T01790019  RH  035%=      5-min Rain = 0
KWVS 141615Z 19004KT 19/02 A3018 RMK A01 T01890016  RH  032%=      5-min Rain = 0
KWVS 141620Z 19006KT 20/02 A3018 RMK A01 T01960015  RH  030%=      5-min Rain = 0
KWVS 141625Z 19006KT 20/02 A3018 RMK A01 T01970015  RH  030%=      5-min Rain = 0
KWVS 141630Z 19008KT 20/01 A3018 RMK A01 T01980014  RH  030%=      5-min Rain = 0
KWVS 141635Z 19010KT 20/01 A3018 RMK A01 T01950013  RH  030%=      5-min Rain = 0
KWVS 141640Z 21008KT 20/02 A3018 RMK A01 T01970015  RH  030%=      5-min Rain = 0
KWVS 141645Z 21009KT 20/01 A3018 RMK A01 T02000014  RH  029%=      5-min Rain = 0
KWVS 141650Z 20008KT 20/02 A3017 RMK A01 T02010015  RH  030%=      5-min Rain = 0
KWVS 141655Z 22009KT 21/01 A3017 RMK A01 T02100014  RH  028%=      5-min Rain = 0
KWVS 141700Z 22010KT 21/01 A3017 RMK A01 T02130014  RH  027%=      5-min Rain = 0
KWVS 141705Z 21009KT 21/02 A3017 RMK A01 T02140015  RH  027%=      5-min Rain = 0
KWVS 141710Z 20009KT 22/02 A3016 RMK A01 T02180015  RH  026%=      5-min Rain = 0
KWVS 141715Z 19011KT 23/01 A3016 RMK A01 T02250014  RH  025%=      5-min Rain = 0
KWVS 141720Z 21012KT 22/01 A3016 RMK A01 T02230009  RH  025%=      5-min Rain = 0
KWVS 141725Z 20009KT 22/01 A3016 RMK A01 T02230010  RH  025%=      5-min Rain = 0
KWVS 141730Z 20010KT 22/01 A3015 RMK A01 T02240009  RH  024%=      5-min Rain = 0
KWVS 141735Z 20009KT 23/01 A3015 RMK A01 T02290009  RH  024%=      5-min Rain = 0
KWVS 141740Z 19010KT 23/01 A3015 RMK A01 T02290010  RH  024%=      5-min Rain = 0
KWVS 141745Z 20010KT 23/01 A3015 RMK A01 T02300008  RH  023%=      5-min Rain = 0
KWVS 141750Z 20012G17KT 23/01 A3015 RMK A01 T02320007  RH  023%=      5-min Rain = 0
KWVS 141755Z 20011G16KT 23/01 A3014 RMK A01 T02320009  RH  023%=      5-min Rain = 0
KWVS 141800Z 20012KT 24/01 A3014 RMK A01 T02350006  RH  022%=      5-min Rain = 0
KWVS 141805Z 20011KT 24/01 A3014 RMK A01 T02390008  RH  022%=      5-min Rain = 0
KWVS 141810Z 21015KT 24/01 A3013 RMK A01 T02380005  RH  022%=      5-min Rain = 0
KWVS 141815Z 21013KT 24/01 A3013 RMK A01 T02400006  RH  022%=      5-min Rain = 0
KWVS 141820Z 19012KT 24/00 A3013 RMK A01 T02410004  RH  021%=      5-min Rain = 0
KWVS 141825Z 21014G20KT 24/00 A3013 RMK A01 T024400-0  RH  020%=      5-min Rain = 0
KWVS 141830Z 22015KT 24/00 A3012 RMK A01 T024200-0  RH  020%=      5-min Rain = 0
KWVS 141835Z 20010KT 24/00 A3012 RMK A01 T02400001  RH  021%=      5-min Rain = 0
KWVS 141840Z 21014KT 25/M01 A3012 RMK A01 T02481006  RH  019%=      5-min Rain = 0
KWVS 141845Z 22013KT 25/M00 A3012 RMK A01 T02491003  RH  019%=      5-min Rain = 0
KWVS 141850Z 21013G18KT 25/M00 A3011 RMK A01 T02521003  RH  019%=      5-min Rain = 0
KWVS 141855Z 20010G16KT 25/00 A3011 RMK A01 T02480000  RH  020%=      5-min Rain = 0
KWVS 141900Z 20009G14KT 25/00 A3011 RMK A01 T02530004  RH  020%=      5-min Rain = 0
KWVS 141905Z 21013G19KT 26/M02 A301 RMK A01 T02611016  RH  016%=      5-min Rain = 0
KWVS 141910Z 20011G17KT 26/M02 A301 RMK A01 T02601016  RH  016%=      5-min Rain = 0
KWVS 141915Z 19011G16KT 26/M01 A301 RMK A01 T02621007  RH  017%=      5-min Rain = 0
KWVS 141920Z 18012G17KT 26/M01 A3009 RMK A01 T02621010  RH  017%=      5-min Rain = 0
KWVS 141925Z 20012G17KT 26/M01 A3009 RMK A01 T02611012  RH  017%=      5-min Rain = 0
KWVS 141930Z 22014G20KT 27/M04 A3008 RMK A01 T02681040  RH  013%=      5-min Rain = 0
KWVS 141935Z 19014G21KT 27/M05 A3008 RMK A01 T02721048  RH  012%=      5-min Rain = 0
KWVS 141940Z 22013G18KT 27/M04 A3007 RMK A01 T02721040  RH  013%=      5-min Rain = 0
KWVS 141945Z 20012G18KT 28/M04 A3007 RMK A01 T02751036  RH  013%=      5-min Rain = 0
KWVS 141950Z 20017G25KT 28/M04 A3006 RMK A01 T02761043  RH  012%=      5-min Rain = 0
KWVS 141955Z 21015G22KT 27/M05 A3006 RMK A01 T02731046  RH  012%=      5-min Rain = 0
KWVS 142000Z 21017G23KT 27/M05 A3006 RMK A01 T02721045  RH  012%=      5-min Rain = 0
KWVS 142005Z 21016G21KT 28/M05 A3006 RMK A01 T02751052  RH  011%=      5-min Rain = 0
KWVS 142010Z 20016G21KT 27/M05 A3006 RMK A01 T02731052  RH  012%=      5-min Rain = 0
KWVS 142015Z 20014G20KT 27/M05 A3005 RMK A01 T02741051  RH  012%=      5-min Rain = 0
KWVS 142020Z 21017G24KT 28/M06 A3005 RMK A01 T02821061  RH  010%=      5-min Rain = 0
KWVS 142025Z 22016KT 28/M06 A3004 RMK A01 T02781058  RH  011%=      5-min Rain = 0
KWVS 142030Z 21014G19KT 28/M05 A3004 RMK A01 T02801054  RH  011%=      5-min Rain = 0
KWVS 142035Z 21014G21KT 28/M05 A3004 RMK A01 T02801054  RH  011%=      5-min Rain = 0
KWVS 142040Z 21016G23KT 28/M05 A3004 RMK A01 T02791054  RH  011%=      5-min Rain = 0
KWVS 142045Z 20016G22KT 28/M05 A3003 RMK A01 T02811051  RH  011%=      5-min Rain = 0
KWVS 142050Z 21013G22KT 28/M05 A3003 RMK A01 T02791045  RH  012%=      5-min Rain = 0
KWVS 142055Z 19014G19KT 28/M03 A3003 RMK A01 T02781034  RH  013%=      5-min Rain = 0
KWVS 142100Z 19011G18KT 28/M02 A3003 RMK A01 T02791023  RH  014%=      5-min Rain = 0
KWVS 142105Z 19016G21KT 28/M01 A3002 RMK A01 T02761013  RH  015%=      5-min Rain = 0
KWVS 142110Z 18016G21KT 27/M00 A3003 RMK A01 T02711004  RH  017%=      5-min Rain = 0
KWVS 142115Z 18015G21KT 27/00 A3003 RMK A01 T02670000  RH  018%=      5-min Rain = 0
KWVS 142120Z 17016G22KT 27/01 A3003 RMK A01 T02730007  RH  018%=      5-min Rain = 0
KWVS 142125Z 17016KT 27/01 A3002 RMK A01 T02720006  RH  018%=      5-min Rain = 0
KWVS 142130Z 18017KT 27/00 A3002 RMK A01 T02720003  RH  017%=      5-min Rain = 0
KWVS 142135Z 18016G21KT 27/01 A3002 RMK A01 T02700005  RH  018%=      5-min Rain = 0
KWVS 142140Z 17016G22KT 27/01 A3002 RMK A01 T02670007  RH  019%=      5-min Rain = 0
KWVS 142145Z 17017KT 27/01 A3002 RMK A01 T02660009  RH  019%=      5-min Rain = 0
KWVS 142150Z 17018G24KT 26/01 A3002 RMK A01 T02630005  RH  019%=      5-min Rain = 0
KWVS 142155Z 17018G23KT 26/M00 A3001 RMK A01 T02621001  RH  018%=      5-min Rain = 0
KWVS 142200Z 17019G25KT 27/00 A3001 RMK A01 T02650001  RH  018%=      5-min Rain = 0
KWVS 142205Z 18018G23KT 26/00 A3001 RMK A01 T02600002  RH  019%=      5-min Rain = 0
KWVS 142210Z 18017G23KT 26/00 A3001 RMK A01 T02610003  RH  019%=      5-min Rain = 0
KWVS 142215Z 18016G22KT 26/00 A3001 RMK A01 T02640003  RH  018%=      5-min Rain = 0
KWVS 142220Z 18018G23KT 26/00 A30 RMK A01 T02640002  RH  018%=      5-min Rain = 0
KWVS 142225Z 18018KT 26/00 A30 RMK A01 T02630003  RH  019%=      5-min Rain = 0
KWVS 142230Z 18016G21KT 26/00 A30 RMK A01 T02630004  RH  019%=      5-min Rain = 0
KWVS 142235Z 18015KT 27/01 A2999 RMK A01 T02650005  RH  019%=      5-min Rain = 0
KWVS 142240Z 18012KT 27/01 A2999 RMK A01 T02660005  RH  018%=      5-min Rain = 0
KWVS 142245Z 17016G21KT 27/00 A2999 RMK A01 T02680004  RH  018%=      5-min Rain = 0
KWVS 142250Z 18017G23KT 27/00 A2999 RMK A01 T02670000  RH  018%=      5-min Rain = 0
KWVS 142255Z 18016G21KT 26/M00 A2999 RMK A01 T02631003  RH  018%=      5-min Rain = 0
KWVS 142300Z 18016G21KT 26/M00 A2999 RMK A01 T02591004  RH  018%=      5-min Rain = 0
KWVS 142305Z 18016G21KT 26/M00 A2999 RMK A01 T02581004  RH  018%=      5-min Rain = 0
KWVS 142310Z 18016KT 26/M00 A2999 RMK A01 T02591004  RH  018%=      5-min Rain = 0
KWVS 142315Z 18016KT 26/M00 A2998 RMK A01 T02611004  RH  018%=      5-min Rain = 0
KWVS 142320Z 18014G19KT 26/M01 A2998 RMK A01 T02631006  RH  017%=      5-min Rain = 0
KWVS 142325Z 18015G20KT 26/M01 A2998 RMK A01 T02611010  RH  017%=      5-min Rain = 0
KWVS 142330Z 18016KT 26/M01 A2998 RMK A01 T02591012  RH  017%=      5-min Rain = 0
KWVS 142335Z 18014G21KT 26/M01 A2998 RMK A01 T02581011  RH  017%=      5-min Rain = 0
KWVS 142340Z 18015G20KT 26/M01 A2998 RMK A01 T02561009  RH  018%=      5-min Rain = 0
KWVS 142345Z 19014KT 25/M01 A2998 RMK A01 T02541009  RH  018%=      5-min Rain = 0
KWVS 142350Z 18014KT 25/M01 A2998 RMK A01 T02531010  RH  018%=      5-min Rain = 0
KWVS 142355Z 19014KT 25/M01 A2998 RMK A01 T02531012  RH  018%=      5-min Rain = 0
KWVS 150000Z 19014KT 25/M01 A2998 RMK A01 T02541013  RH  017%=      5-min Rain = 0
KWVS 150005Z 19012KT 25/M01 A2998 RMK A01 T02511013  RH  018%=      5-min Rain = 0
KWVS 150010Z 19013G18KT 25/M01 A2998 RMK A01 T02491013  RH  018%=      5-min Rain = 0
KWVS 150015Z 19012G17KT 25/M01 A2997 RMK A01 T02471012  RH  018%=      5-min Rain = 0
KWVS 150020Z 19012KT 24/M01 A2997 RMK A01 T02441010  RH  019%=      5-min Rain = 0
KWVS 150025Z 18013KT 24/M01 A2997 RMK A01 T02421008  RH  019%=      5-min Rain = 0
KWVS 150030Z 18012KT 24/M01 A2997 RMK A01 T02391006  RH  020%=      5-min Rain = 0
KWVS 150035Z 18012KT 24/M00 A2997 RMK A01 T02371004  RH  021%=      5-min Rain = 0
KWVS 150040Z 18012KT 24/M00 A2997 RMK A01 T02371002  RH  021%=      5-min Rain = 0
KWVS 150045Z 18011KT 23/00 A2997 RMK A01 T02340001  RH  022%=      5-min Rain = 0
KWVS 150050Z 18011KT 23/00 A2997 RMK A01 T02330004  RH  022%=      5-min Rain = 0
KWVS 150055Z 18012KT 23/01 A2997 RMK A01 T02330006  RH  023%=      5-min Rain = 0
KWVS 150100Z 18012KT 23/01 A2998 RMK A01 T02330008  RH  023%=      5-min Rain = 0
KWVS 150105Z 18011KT 23/01 A2997 RMK A01 T02300009  RH  023%=      5-min Rain = 0
KWVS 150110Z 18012KT 23/01 A2997 RMK A01 T02300010  RH  024%=      5-min Rain = 0
KWVS 150115Z 18011KT 23/01 A2997 RMK A01 T02280011  RH  024%=      5-min Rain = 0
KWVS 150120Z 18010KT 23/01 A2997 RMK A01 T02270011  RH  024%=      5-min Rain = 0
KWVS 150125Z 18011KT 23/01 A2997 RMK A01 T02270013  RH  025%=      5-min Rain = 0
KWVS 150130Z 18010KT 23/01 A2998 RMK A01 T02280014  RH  025%=      5-min Rain = 0
KWVS 150135Z 18009KT 23/01 A2998 RMK A01 T02270014  RH  025%=      5-min Rain = 0
KWVS 150140Z 18009KT 22/01 A2998 RMK A01 T02240014  RH  025%=      5-min Rain = 0
KWVS 150145Z 18009KT 22/01 A2998 RMK A01 T02200014  RH  026%=      5-min Rain = 0
KWVS 150150Z 19009G14KT 22/02 A2998 RMK A01 T02180015  RH  027%=      5-min Rain = 0
KWVS 150155Z 19009KT 22/02 A2998 RMK A01 T02180017  RH  027%=      5-min Rain = 0
KWVS 150200Z 20008KT 21/02 A2998 RMK A01 T02130016  RH  028%=      5-min Rain = 0
KWVS 150205Z 20008KT 21/02 A2998 RMK A01 T02070015  RH  028%=      5-min Rain = 0
KWVS 150210Z 20008KT 20/02 A2998 RMK A01 T02020015  RH  029%=      5-min Rain = 0
KWVS 150215Z 20008KT 20/01 A2998 RMK A01 T01970014  RH  030%=      5-min Rain = 0
KWVS 150220Z 21007KT 19/01 A2998 RMK A01 T01930014  RH  031%=      5-min Rain = 0
KWVS 150225Z 21007KT 19/01 A2998 RMK A01 T01890014  RH  032%=      5-min Rain = 0
KWVS 150230Z 21008KT 19/02 A2998 RMK A01 T01870015  RH  032%=      5-min Rain = 0
KWVS 150235Z 21008KT 18/02 A2998 RMK A01 T01840016  RH  033%=      5-min Rain = 0
KWVS 150240Z 20009KT 18/02 A2999 RMK A01 T01810016  RH  033%=      5-min Rain = 0
KWVS 150245Z 20009KT 18/02 A2998 RMK A01 T01810017  RH  034%=      5-min Rain = 0
KWVS 150250Z 20010KT 18/02 A2998 RMK A01 T01840018  RH  033%=      5-min Rain = 0
KWVS 150255Z 20009KT 19/02 A2998 RMK A01 T01860019  RH  033%=      5-min Rain = 0
KWVS 150300Z 21008KT 18/02 A2998 RMK A01 T01840019  RH  034%=      5-min Rain = 0
KWVS 150305Z 21008KT 18/02 A2999 RMK A01 T01800018  RH  034%=      5-min Rain = 0
KWVS 150310Z 22007KT 18/02 A2999 RMK A01 T01760018  RH  035%=      5-min Rain = 0
KWVS 150315Z 22007KT 18/02 A2999 RMK A01 T01750018  RH  035%=      5-min Rain = 0
KWVS 150320Z 22007KT 18/02 A2999 RMK A01 T01780019  RH  035%=      5-min Rain = 0
KWVS 150325Z 22007KT 18/02 A2999 RMK A01 T01770020  RH  035%=      5-min Rain = 0
KWVS 150330Z 21007KT 18/02 A2999 RMK A01 T01760020  RH  036%=      5-min Rain = 0
KWVS 150335Z 21006KT 18/02 A2999 RMK A01 T01750020  RH  036%=      5-min Rain = 0
KWVS 150340Z 22006KT 18/02 A30 RMK A01 T01770021  RH  036%=      5-min Rain = 0
KWVS 150345Z 23006KT 18/02 A30 RMK A01 T01770023  RH  036%=      5-min Rain = 0
KWVS 150350Z 23006KT 18/02 A30 RMK A01 T01760024  RH  037%=      5-min Rain = 0
KWVS 150355Z 22006KT 18/03 A30 RMK A01 T01770026  RH  037%=      5-min Rain = 0
KWVS 150400Z 22007KT 18/03 A30 RMK A01 T01770028  RH  037%=      5-min Rain = 0
KWVS 150405Z 22007KT 18/03 A30 RMK A01 T01750029  RH  038%=      5-min Rain = 0
KWVS 150410Z 22008KT 18/03 A30 RMK A01 T01760031  RH  039%=      5-min Rain = 0
KWVS 150415Z 21009KT 17/03 A30 RMK A01 T01740033  RH  039%=      5-min Rain = 0
KWVS 150420Z 21010KT 17/03 A30 RMK A01 T01720034  RH  040%=      5-min Rain = 0
KWVS 150425Z 21010KT 17/04 A30 RMK A01 T01720035  RH  041%=      5-min Rain = 0
KWVS 150430Z 20011KT 17/04 A30 RMK A01 T01710037  RH  042%=      5-min Rain = 0
KWVS 150435Z 20010KT 17/04 A30 RMK A01 T01700040  RH  043%=      5-min Rain = 0
KWVS 150440Z 20011KT 17/04 A30 RMK A01 T01710041  RH  043%=      5-min Rain = 0
KWVS 150445Z 20011KT 17/04 A30 RMK A01 T01680042  RH  044%=      5-min Rain = 0
KWVS 150450Z 21010KT 17/04 A30 RMK A01 T01670042  RH  044%=      5-min Rain = 0
KWVS 150455Z 20010KT 16/04 A30 RMK A01 T01640042  RH  045%=      5-min Rain = 0
KWVS 150500Z 21009KT 16/04 A30 RMK A01 T01600041  RH  046%=      5-min Rain = 0
KWVS 150505Z 21009KT 16/04 A30 RMK A01 T01590042  RH  047%=      5-min Rain = 0
KWVS 150510Z 21010KT 16/04 A30 RMK A01 T01580043  RH  047%=      5-min Rain = 0
KWVS 150515Z 20011KT 16/05 A30 RMK A01 T01620048  RH  048%=      5-min Rain = 0
KWVS 150520Z 21011KT 17/05 A3001 RMK A01 T01670051  RH  047%=      5-min Rain = 0
KWVS 150525Z 21011KT 17/05 A3001 RMK A01 T01670052  RH  048%=      5-min Rain = 0
KWVS 150530Z 21010KT 17/05 A3001 RMK A01 T01660052  RH  048%=      5-min Rain = 0
KWVS 150535Z 21010KT 16/05 A30 RMK A01 T01640053  RH  049%=      5-min Rain = 0
KWVS 150540Z 21010KT 16/05 A30 RMK A01 T01630053  RH  049%=      5-min Rain = 0
KWVS 150545Z 20010KT 16/05 A3001 RMK A01 T01610053  RH  050%=      5-min Rain = 0
KWVS 150550Z 21010KT 16/05 A3001 RMK A01 T01600052  RH  050%=      5-min Rain = 0
KWVS 150555Z 21010KT 16/05 A3001 RMK A01 T01560051  RH  051%=      5-min Rain = 0

Page generated in 0.009 seconds.